Time;durP1;ratioP1;P1;durP2;ratioP2;P2;SDS_P1;SDS_P2;PMS_P1;PMS_P2;Temp;Humidity;BMP_temperature;BMP_pressure;BME280_temperature;BME280_humidity;BME280_pressure;Samples;Min_cycle;Max_cycle;Signal;HPM_P1;HPM_P2
2023/04/16 00:00:21;;;;;;;;;;;8.70;99.90;;;;;;5075060;28;20247;-67
2023/04/16 00:02:47;;;;;;;;;;;8.60;99.90;;;;;;5074552;28;19951;-67
2023/04/16 00:05:13;;;;;;;;;;;8.50;99.90;;;;;;5080283;28;20378;-67
2023/04/16 00:07:39;;;;;;;;;;;8.50;99.90;;;;;;5095136;28;19947;-67
2023/04/16 00:10:06;;;;;;;;;;;8.50;99.90;;;;;;5094595;28;19966;-67
2023/04/16 00:12:31;;;;;;;;;;;8.40;99.90;;;;;;5094721;28;19908;-67
2023/04/16 00:14:57;;;;;;;;;;;8.50;99.90;;;;;;5095456;28;20277;-67
2023/04/16 00:17:23;;;;;;;;;;;8.40;99.90;;;;;;5094791;28;19923;-67
2023/04/16 00:19:49;;;;;;;;;;;8.40;99.90;;;;;;5094951;28;19955;-67
2023/04/16 00:22:15;;;;;;;;;;;8.40;99.90;;;;;;5094716;28;19916;-67
2023/04/16 00:24:41;;;;;;;;;;;8.50;99.90;;;;;;5094671;28;19912;-67
2023/04/16 00:27:06;;;;;;;;;;;8.50;99.90;;;;;;5094987;28;20361;-67
2023/04/16 00:29:33;;;;;;;;;;;8.50;99.90;;;;;;5094896;28;19985;-67
2023/04/16 00:32:00;;;;;;;;;;;8.50;99.90;;;;;;5076554;28;19995;-67
2023/04/16 00:34:26;;;;;;;;;;;8.70;99.90;;;;;;5076728;28;20376;-67
2023/04/16 00:36:52;;;;;;;;;;;8.80;99.90;;;;;;5094830;28;20327;-67
2023/04/16 00:39:17;;;;;;;;;;;8.70;99.90;;;;;;5095101;28;19919;-67
2023/04/16 00:41:43;;;;;;;;;;;8.50;99.90;;;;;;5076728;28;19959;-67
2023/04/16 00:44:09;;;;;;;;;;;8.40;99.90;;;;;;5094868;28;19909;-67
2023/04/16 00:46:35;;;;;;;;;;;8.40;99.90;;;;;;5076371;28;19923;-67
2023/04/16 00:49:02;;;;;;;;;;;8.40;99.90;;;;;;5094564;28;19923;-67
2023/04/16 00:51:28;;;;;;;;;;;8.40;99.90;;;;;;5076481;28;19940;-67
2023/04/16 00:53:55;;;;;;;;;;;8.40;99.90;;;;;;5094575;28;19916;-67
2023/04/16 00:56:22;;;;;;;;;;;8.40;99.90;;;;;;5094581;28;19959;-67
2023/04/16 00:58:48;;;;;;;;;;;8.30;99.90;;;;;;5094495;28;19977;-67
2023/04/16 01:01:14;;;;;;;;;;;8.20;99.90;;;;;;5076322;28;19915;-67
2023/04/16 01:03:44;;;;;;;;;;;8.10;99.90;;;;;;5076536;28;20408;-67
2023/04/16 01:06:10;;;;;;;;;;;8.10;99.90;;;;;;5081018;28;20029;-67
2023/04/16 01:08:36;;;;;;;;;;;8.20;99.90;;;;;;5076498;28;19920;-67
2023/04/16 01:11:02;;;;;;;;;;;8.20;99.90;;;;;;5077883;28;19939;-67
2023/04/16 01:13:29;;;;;;;;;;;8.20;99.90;;;;;;5077838;28;19916;-67
2023/04/16 01:15:54;;;;;;;;;;;8.20;99.90;;;;;;5076444;28;19913;-67
2023/04/16 01:18:21;;;;;;;;;;;8.20;99.90;;;;;;5059894;28;19938;-67
2023/04/16 01:20:48;;;;;;;;;;;8.10;99.90;;;;;;5059553;28;19916;-67
2023/04/16 01:23:14;;;;;;;;;;;8.10;99.90;;;;;;5078218;28;19977;-67
2023/04/16 01:25:40;;;;;;;;;;;8.10;99.90;;;;;;5077723;28;19908;-67
2023/04/16 01:28:06;;;;;;;;;;;8.00;99.90;;;;;;5077475;28;20280;-67
2023/04/16 01:30:32;;;;;;;;;;;7.90;99.90;;;;;;5059450;28;20009;-65
2023/04/16 01:33:12;;;;;;;;;;;7.90;99.90;;;;;;5076354;28;20015;-65
2023/04/16 01:35:40;;;;;;;;;;;7.80;99.90;;;;;;5059412;28;19916;-65
2023/04/16 01:38:06;;;;;;;;;;;7.90;99.90;;;;;;5077556;28;19916;-64
2023/04/16 01:40:32;;;;;;;;;;;7.90;99.90;;;;;;5077444;28;19913;-64
2023/04/16 01:42:58;;;;;;;;;;;7.80;99.90;;;;;;5077248;28;19912;-64
2023/04/16 01:45:24;;;;;;;;;;;7.80;99.90;;;;;;5077315;28;20468;-64
2023/04/16 01:47:50;;;;;;;;;;;7.80;99.90;;;;;;5077178;28;19917;-64
2023/04/16 01:50:16;;;;;;;;;;;7.90;99.90;;;;;;5077240;28;19963;-64
2023/04/16 01:52:43;;;;;;;;;;;7.90;99.90;;;;;;5077265;28;19980;-64
2023/04/16 01:55:09;;;;;;;;;;;7.80;99.90;;;;;;5077043;28;20286;-64
2023/04/16 01:57:35;;;;;;;;;;;7.70;99.90;;;;;;5076904;28;20343;-64
2023/04/16 02:00:02;;;;;;;;;;;7.70;99.90;;;;;;5075813;28;19924;-64
2023/04/16 02:02:30;;;;;;;;;;;7.60;99.90;;;;;;5092525;28;19916;-64
2023/04/16 02:04:56;;;;;;;;;;;7.60;99.90;;;;;;5079835;28;19908;-64
2023/04/16 02:07:23;;;;;;;;;;;7.60;99.90;;;;;;5079141;28;19965;-64
2023/04/16 02:09:51;;;;;;;;;;;7.60;99.90;;;;;;5096941;28;19916;-64
2023/04/16 02:12:17;;;;;;;;;;;7.60;99.90;;;;;;5078829;28;19919;-64
2023/04/16 02:14:43;;;;;;;;;;;7.70;99.90;;;;;;5097081;28;19912;-64
2023/04/16 02:17:11;;;;;;;;;;;7.60;99.90;;;;;;5078226;28;19923;-64
2023/04/16 02:19:39;;;;;;;;;;;7.80;99.90;;;;;;5078828;28;20285;-64
2023/04/16 02:22:06;;;;;;;;;;;7.60;99.90;;;;;;5097091;28;19912;-64
2023/04/16 02:24:32;;;;;;;;;;;7.60;99.90;;;;;;5078563;28;19913;-64
2023/04/16 02:27:01;;;;;;;;;;;7.60;99.90;;;;;;5078608;28;19916;-64
2023/04/16 02:29:27;;;;;;;;;;;7.60;99.90;;;;;;5078494;28;19916;-64
2023/04/16 02:32:00;;;;;;;;;;;7.50;99.90;;;;;;5078330;28;19912;-64
2023/04/16 02:34:27;;;;;;;;;;;7.50;99.90;;;;;;5078390;28;19919;-64
2023/04/16 02:36:53;;;;;;;;;;;7.40;99.90;;;;;;5078536;28;19912;-64
2023/04/16 02:39:19;;;;;;;;;;;7.50;99.90;;;;;;5096408;28;20435;-64
2023/04/16 02:41:45;;;;;;;;;;;7.50;99.90;;;;;;5096502;28;19920;-64
2023/04/16 02:44:12;;;;;;;;;;;7.50;99.90;;;;;;5078293;28;20340;-64
2023/04/16 02:46:37;;;;;;;;;;;7.40;99.90;;;;;;5096326;28;19912;-64
2023/04/16 02:49:03;;;;;;;;;;;7.60;99.90;;;;;;5096367;28;20187;-64
2023/04/16 02:51:29;;;;;;;;;;;7.60;99.90;;;;;;5078224;28;19912;-64
2023/04/16 02:53:55;;;;;;;;;;;7.50;99.90;;;;;;5096156;28;20353;-64
2023/04/16 02:56:21;;;;;;;;;;;7.50;99.90;;;;;;5077901;28;19920;-64
2023/04/16 02:58:47;;;;;;;;;;;7.50;99.90;;;;;;5095930;28;19912;-64
2023/04/16 03:01:12;;;;;;;;;;;7.50;99.90;;;;;;5077784;28;19919;-64
2023/04/16 03:03:38;;;;;;;;;;;7.50;99.90;;;;;;5077880;28;20281;-64
2023/04/16 03:06:04;;;;;;;;;;;7.50;99.90;;;;;;5065224;28;19978;-64
2023/04/16 03:08:30;;;;;;;;;;;7.50;99.90;;;;;;5075329;28;20313;-64
2023/04/16 03:10:56;;;;;;;;;;;7.60;99.90;;;;;;5074383;28;20004;-64
2023/04/16 03:13:21;;;;;;;;;;;7.70;99.90;;;;;;5075696;28;19919;-64
2023/04/16 03:15:48;;;;;;;;;;;7.80;99.90;;;;;;5074378;28;19958;-64
2023/04/16 03:18:14;;;;;;;;;;;7.70;99.90;;;;;;5075622;28;20313;-64
2023/04/16 03:20:40;;;;;;;;;;;7.60;99.90;;;;;;5075454;28;19913;-64
2023/04/16 03:23:06;;;;;;;;;;;7.70;99.90;;;;;;5073935;28;19920;-64
2023/04/16 03:25:32;;;;;;;;;;;7.80;99.90;;;;;;5075447;28;19917;-64
2023/04/16 03:27:57;;;;;;;;;;;7.80;99.90;;;;;;5075345;28;19913;-64
2023/04/16 03:30:23;;;;;;;;;;;7.70;99.90;;;;;;5056549;28;19962;-64
2023/04/16 03:32:49;;;;;;;;;;;7.80;99.90;;;;;;5075361;28;19912;-64
2023/04/16 03:35:15;;;;;;;;;;;7.70;99.90;;;;;;5057221;28;20456;-64
2023/04/16 03:37:41;;;;;;;;;;;7.80;99.90;;;;;;5075165;28;19916;-64
2023/04/16 03:40:07;;;;;;;;;;;7.90;99.90;;;;;;5074021;28;19916;-64
2023/04/16 03:42:33;;;;;;;;;;;7.90;99.90;;;;;;5073723;28;19908;-64
2023/04/16 03:44:59;;;;;;;;;;;7.80;99.90;;;;;;5057135;28;20006;-64
2023/04/16 03:47:26;;;;;;;;;;;7.80;99.90;;;;;;5090713;28;19986;-64
2023/04/16 03:49:56;;;;;;;;;;;7.70;99.90;;;;;;5073656;28;20443;-64
2023/04/16 03:52:21;;;;;;;;;;;7.80;99.90;;;;;;5075071;28;19917;-64
2023/04/16 03:54:47;;;;;;;;;;;7.90;99.90;;;;;;5090507;28;19996;-64
2023/04/16 03:57:22;;;;;;;;;;;7.80;99.90;;;;;;5056954;28;20401;-64
2023/04/16 03:59:48;;;;;;;;;;;7.80;99.90;;;;;;5073666;28;20003;-64
2023/04/16 04:02:16;;;;;;;;;;;7.80;99.90;;;;;;5073320;28;19919;-64
2023/04/16 04:04:42;;;;;;;;;;;7.70;99.90;;;;;;5057729;28;19912;-65
2023/04/16 04:07:09;;;;;;;;;;;7.70;99.90;;;;;;5077062;28;19919;-66
2023/04/16 04:09:35;;;;;;;;;;;7.60;99.90;;;;;;5076681;28;19938;-67
2023/04/16 04:12:02;;;;;;;;;;;7.70;99.90;;;;;;5076717;28;19912;-67
2023/04/16 04:14:29;;;;;;;;;;;7.80;99.90;;;;;;5076803;28;19988;-67
2023/04/16 04:16:55;;;;;;;;;;;7.80;99.90;;;;;;5076838;28;19951;-67
2023/04/16 04:19:20;;;;;;;;;;;7.80;99.90;;;;;;5076697;28;20312;-67
2023/04/16 04:21:47;;;;;;;;;;;7.70;99.90;;;;;;5076668;28;20510;-67
2023/04/16 04:24:16;;;;;;;;;;;7.80;99.90;;;;;;5076645;28;20044;-67
2023/04/16 04:26:41;;;;;;;;;;;7.90;99.90;;;;;;5076655;28;20377;-67
2023/04/16 04:29:08;;;;;;;;;;;7.90;99.90;;;;;;5076714;28;20018;-67
2023/04/16 04:31:34;;;;;;;;;;;7.90;99.90;;;;;;5076666;28;20380;-67
2023/04/16 04:34:01;;;;;;;;;;;7.90;99.90;;;;;;5076546;28;20010;-67
2023/04/16 04:36:27;;;;;;;;;;;7.90;99.90;;;;;;5076666;28;19943;-67
2023/04/16 04:38:53;;;;;;;;;;;7.90;99.90;;;;;;5076648;28;20262;-67
2023/04/16 04:41:20;;;;;;;;;;;7.90;99.90;;;;;;5078437;28;19916;-67
2023/04/16 04:43:46;;;;;;;;;;;8.00;99.90;;;;;;5080582;28;20319;-67
2023/04/16 04:46:12;;;;;;;;;;;8.20;99.90;;;;;;5080373;28;19991;-67
2023/04/16 04:48:39;;;;;;;;;;;8.20;99.90;;;;;;5080363;28;19918;-67
2023/04/16 04:51:05;;;;;;;;;;;8.10;99.90;;;;;;5080643;28;20007;-67
2023/04/16 04:53:31;;;;;;;;;;;8.10;99.90;;;;;;5080107;28;19916;-67
2023/04/16 04:55:57;;;;;;;;;;;8.20;99.90;;;;;;5080154;28;19924;-67
2023/04/16 04:58:23;;;;;;;;;;;8.20;99.90;;;;;;5080701;28;19912;-67
2023/04/16 05:00:48;;;;;;;;;;;8.10;99.90;;;;;;5080211;28;19912;-67
2023/04/16 05:03:19;;;;;;;;;;;8.20;99.90;;;;;;5098390;28;20449;-67
2023/04/16 05:05:44;;;;;;;;;;;8.20;99.90;;;;;;5088631;28;19920;-67
2023/04/16 05:08:10;;;;;;;;;;;8.30;99.90;;;;;;5077905;28;19912;-66
2023/04/16 05:10:36;;;;;;;;;;;8.40;99.90;;;;;;5077736;28;19920;-64
2023/04/16 05:13:02;;;;;;;;;;;8.30;99.90;;;;;;5078029;28;19920;-64
2023/04/16 05:15:27;;;;;;;;;;;8.40;99.90;;;;;;5077823;28;19912;-64
2023/04/16 05:17:55;;;;;;;;;;;8.40;99.90;;;;;;5077824;28;19912;-64
2023/04/16 05:20:21;;;;;;;;;;;8.40;99.90;;;;;;5077875;28;19916;-64
2023/04/16 05:22:48;;;;;;;;;;;8.50;99.90;;;;;;5077567;28;19916;-64
2023/04/16 05:25:13;;;;;;;;;;;8.60;99.90;;;;;;5077686;28;20018;-64
2023/04/16 05:27:39;;;;;;;;;;;8.70;99.90;;;;;;5077832;28;20389;-64
2023/04/16 05:30:05;;;;;;;;;;;8.80;99.90;;;;;;5077342;28;20375;-64
2023/04/16 05:32:31;;;;;;;;;;;8.90;99.90;;;;;;5077509;28;19923;-64
2023/04/16 05:34:57;;;;;;;;;;;9.00;99.90;;;;;;5077474;28;19913;-64
2023/04/16 05:37:23;;;;;;;;;;;9.20;99.90;;;;;;5077354;28;20370;-66
2023/04/16 05:39:49;;;;;;;;;;;9.20;99.90;;;;;;5077392;28;19919;-66
2023/04/16 05:42:15;;;;;;;;;;;9.30;99.90;;;;;;5077445;28;19927;-67
2023/04/16 05:44:40;;;;;;;;;;;9.40;99.90;;;;;;5077272;28;19934;-67
2023/04/16 05:47:08;;;;;;;;;;;9.50;99.90;;;;;;5077292;28;19913;-67
2023/04/16 05:49:36;;;;;;;;;;;9.50;99.90;;;;;;5077095;28;19920;-67
2023/04/16 05:52:03;;;;;;;;;;;9.60;99.90;;;;;;5076481;28;19912;-67
2023/04/16 05:54:28;;;;;;;;;;;9.70;99.90;;;;;;5076993;28;19916;-66
2023/04/16 05:56:55;;;;;;;;;;;9.70;99.90;;;;;;5077171;28;19927;-67
2023/04/16 05:59:21;;;;;;;;;;;9.80;99.90;;;;;;5076964;28;19916;-67
2023/04/16 06:01:46;;;;;;;;;;;9.80;99.90;;;;;;5077138;28;20381;-67
2023/04/16 06:04:12;;;;;;;;;;;9.90;99.90;;;;;;5077277;28;19913;-66
2023/04/16 06:06:39;;;;;;;;;;;10.00;99.90;;;;;;5094007;28;19998;-67
2023/04/16 06:09:06;;;;;;;;;;;10.00;99.90;;;;;;5096439;28;20223;-67
2023/04/16 06:11:32;;;;;;;;;;;10.10;99.90;;;;;;5097068;28;19919;-66
2023/04/16 06:13:58;;;;;;;;;;;10.20;99.90;;;;;;5096856;28;19954;-67
2023/04/16 06:16:24;;;;;;;;;;;10.40;99.90;;;;;;5097074;28;19923;-67
2023/04/16 06:18:50;;;;;;;;;;;10.50;99.90;;;;;;5097041;28;19961;-67
2023/04/16 06:21:15;;;;;;;;;;;10.50;99.90;;;;;;5096736;28;19916;-67
2023/04/16 06:23:41;;;;;;;;;;;10.50;99.90;;;;;;5096888;28;19912;-66
2023/04/16 06:26:07;;;;;;;;;;;10.50;99.90;;;;;;5096803;28;19919;-67
2023/04/16 06:28:33;;;;;;;;;;;10.60;99.90;;;;;;5096554;28;20041;-67
2023/04/16 06:30:59;;;;;;;;;;;10.70;99.90;;;;;;5096699;28;20016;-67
2023/04/16 06:33:25;;;;;;;;;;;10.90;99.90;;;;;;5096535;28;19923;-67
2023/04/16 06:35:50;;;;;;;;;;;11.00;99.90;;;;;;5096601;28;19912;-67
2023/04/16 06:38:17;;;;;;;;;;;11.00;99.90;;;;;;5096567;28;19912;-67
2023/04/16 06:40:43;;;;;;;;;;;11.00;99.90;;;;;;5096496;28;19919;-67
2023/04/16 06:43:08;;;;;;;;;;;11.00;99.90;;;;;;5096495;28;19912;-67
2023/04/16 06:45:34;;;;;;;;;;;11.00;99.90;;;;;;5096483;28;19916;-67
2023/04/16 06:48:02;;;;;;;;;;;11.00;99.90;;;;;;5096290;28;19908;-67
2023/04/16 06:50:27;;;;;;;;;;;11.00;99.90;;;;;;5096137;28;20238;-67
2023/04/16 06:52:54;;;;;;;;;;;11.10;99.90;;;;;;5096306;28;19972;-65
2023/04/16 06:55:19;;;;;;;;;;;11.00;99.90;;;;;;5096077;28;19969;-64
2023/04/16 06:57:45;;;;;;;;;;;11.20;99.90;;;;;;5096219;28;19951;-64
2023/04/16 07:00:11;;;;;;;;;;;10.90;99.90;;;;;;5096230;28;19994;-64
2023/04/16 07:02:37;;;;;;;;;;;11.10;99.90;;;;;;5095929;28;19975;-64
2023/04/16 07:05:03;;;;;;;;;;;11.20;99.90;;;;;;5092007;28;19947;-64
2023/04/16 07:07:29;;;;;;;;;;;11.20;99.90;;;;;;5075749;28;19923;-64
2023/04/16 07:09:55;;;;;;;;;;;11.20;99.90;;;;;;5075295;28;19921;-64
2023/04/16 07:12:21;;;;;;;;;;;11.20;99.90;;;;;;5075716;28;20388;-64
2023/04/16 07:14:47;;;;;;;;;;;11.10;99.90;;;;;;5075666;28;19958;-64
2023/04/16 07:17:12;;;;;;;;;;;11.10;99.90;;;;;;5075429;28;20358;-66
2023/04/16 07:19:38;;;;;;;;;;;11.20;99.90;;;;;;5075554;28;19966;-66
2023/04/16 07:22:04;;;;;;;;;;;11.30;99.90;;;;;;5075440;28;19972;-65
2023/04/16 07:24:31;;;;;;;;;;;11.30;99.90;;;;;;5075302;28;19909;-66
2023/04/16 07:26:57;;;;;;;;;;;11.40;99.90;;;;;;5075524;28;19962;-66
2023/04/16 07:29:22;;;;;;;;;;;11.60;99.90;;;;;;5075297;28;19960;-67
2023/04/16 07:31:48;;;;;;;;;;;11.60;99.90;;;;;;5075139;28;19916;-67
2023/04/16 07:34:14;;;;;;;;;;;11.70;99.90;;;;;;5075321;28;20062;-65
2023/04/16 07:36:40;;;;;;;;;;;11.80;99.90;;;;;;5075353;28;19909;-66
2023/04/16 07:39:06;;;;;;;;;;;11.80;99.90;;;;;;5075161;28;20107;-67
2023/04/16 07:41:32;;;;;;;;;;;11.80;99.90;;;;;;5075304;28;19916;-67
2023/04/16 07:43:58;;;;;;;;;;;12.10;99.90;;;;;;5075165;28;19916;-67
2023/04/16 07:46:23;;;;;;;;;;;12.10;99.90;;;;;;5074874;28;19923;-67
2023/04/16 07:48:49;;;;;;;;;;;12.20;99.90;;;;;;5075119;28;19917;-67
2023/04/16 07:51:15;;;;;;;;;;;12.30;99.90;;;;;;5075051;28;19933;-67
2023/04/16 07:53:42;;;;;;;;;;;12.60;99.90;;;;;;5074896;28;19952;-67
2023/04/16 07:56:08;;;;;;;;;;;12.90;99.90;;;;;;5074959;28;20397;-67
2023/04/16 07:58:34;;;;;;;;;;;12.90;99.90;;;;;;5074867;28;19944;-67
2023/04/16 08:01:00;;;;;;;;;;;12.80;99.90;;;;;;5074779;28;19912;-67
2023/04/16 08:03:26;;;;;;;;;;;13.10;99.90;;;;;;5075081;28;19912;-67
2023/04/16 08:05:51;;;;;;;;;;;13.30;99.90;;;;;;5085602;28;20018;-67
2023/04/16 08:08:17;;;;;;;;;;;13.30;99.60;;;;;;5094888;28;20334;-67
2023/04/16 08:10:43;;;;;;;;;;;13.60;99.50;;;;;;5095054;28;19920;-67
2023/04/16 08:13:09;;;;;;;;;;;13.70;99.30;;;;;;5094828;28;19933;-67
2023/04/16 08:15:35;;;;;;;;;;;13.70;97.80;;;;;;5096841;28;20289;-67
2023/04/16 08:18:01;;;;;;;;;;;13.60;98.30;;;;;;5101830;28;19916;-67
2023/04/16 08:20:26;;;;;;;;;;;13.70;97.50;;;;;;5101828;28;19918;-67
2023/04/16 08:22:52;;;;;;;;;;;13.60;97.90;;;;;;5101478;28;19974;-67
2023/04/16 08:25:19;;;;;;;;;;;13.60;97.70;;;;;;5101654;28;19912;-67
2023/04/16 08:27:45;;;;;;;;;;;13.80;98.10;;;;;;5101528;28;20389;-67
2023/04/16 08:30:11;;;;;;;;;;;14.00;97.70;;;;;;5101429;28;19924;-67
2023/04/16 08:32:36;;;;;;;;;;;13.90;97.40;;;;;;5101546;28;19952;-67
2023/04/16 08:35:02;;;;;;;;;;;13.70;96.70;;;;;;5101501;28;19922;-67
2023/04/16 08:37:28;;;;;;;;;;;13.60;96.80;;;;;;5101370;28;19957;-67
2023/04/16 08:39:54;;;;;;;;;;;13.50;98.20;;;;;;5101940;28;20232;-67
2023/04/16 08:42:28;;;;;;;;;;;13.40;99.90;;;;;;5101577;28;19916;-67
2023/04/16 08:44:57;;;;;;;;;;;13.70;99.20;;;;;;5083250;28;19919;-67
2023/04/16 08:47:24;;;;;;;;;;;13.80;97.60;;;;;;5101563;28;19997;-67
2023/04/16 08:49:51;;;;;;;;;;;13.90;97.60;;;;;;5101237;28;20289;-67
2023/04/16 08:52:22;;;;;;;;;;;14.00;97.80;;;;;;5101467;28;19911;-67
2023/04/16 08:54:51;;;;;;;;;;;14.40;97.30;;;;;;5101102;28;19916;-67
2023/04/16 08:57:18;;;;;;;;;;;14.70;97.20;;;;;;5101205;28;19916;-67
2023/04/16 08:59:47;;;;;;;;;;;14.80;96.00;;;;;;5101512;28;19912;-67
2023/04/16 09:02:13;;;;;;;;;;;15.30;95.40;;;;;;5101294;28;20390;-67
2023/04/16 09:04:40;;;;;;;;;;;15.40;95.10;;;;;;5100501;28;19958;-67
2023/04/16 09:07:08;;;;;;;;;;;15.70;92.00;;;;;;5081273;28;20267;-67
2023/04/16 09:09:34;;;;;;;;;;;16.40;93.00;;;;;;5080703;28;20319;-67
2023/04/16 09:12:00;;;;;;;;;;;17.10;91.30;;;;;;5080908;28;19965;-67
2023/04/16 09:14:25;;;;;;;;;;;17.40;85.00;;;;;;5080982;28;19936;-67
2023/04/16 09:16:52;;;;;;;;;;;17.50;79.40;;;;;;5080957;28;19930;-67
2023/04/16 09:19:18;;;;;;;;;;;17.80;78.30;;;;;;5080840;28;19977;-67
2023/04/16 09:21:45;;;;;;;;;;;17.70;76.90;;;;;;5080904;28;19920;-67
2023/04/16 09:24:11;;;;;;;;;;;18.30;74.10;;;;;;5080789;28;19912;-67
2023/04/16 09:26:37;;;;;;;;;;;18.80;71.70;;;;;;5079928;28;19923;-67
2023/04/16 09:29:03;;;;;;;;;;;19.00;69.40;;;;;;5076751;28;19913;-67
2023/04/16 09:31:29;;;;;;;;;;;19.70;62.40;;;;;;5077571;28;19917;-67
2023/04/16 09:34:02;;;;;;;;;;;19.90;60.40;;;;;;5077535;28;20378;-67
2023/04/16 09:36:27;;;;;;;;;;;20.60;64.70;;;;;;5077490;28;19912;-67
2023/04/16 09:38:53;;;;;;;;;;;21.30;60.80;;;;;;5077308;28;19943;-67
2023/04/16 09:41:23;;;;;;;;;;;21.50;58.70;;;;;;5077279;28;19981;-67
2023/04/16 09:43:54;;;;;;;;;;;20.80;55.00;;;;;;5077294;28;19965;-67
2023/04/16 09:46:20;;;;;;;;;;;20.70;59.70;;;;;;5077152;28;20301;-67
2023/04/16 09:48:46;;;;;;;;;;;20.90;57.90;;;;;;5077231;28;19916;-67
2023/04/16 09:51:12;;;;;;;;;;;20.70;57.40;;;;;;5077219;28;19913;-67
2023/04/16 09:53:37;;;;;;;;;;;19.00;56.90;;;;;;5077167;28;19917;-67
2023/04/16 09:56:06;;;;;;;;;;;17.90;60.40;;;;;;5076960;28;20014;-67
2023/04/16 09:58:35;;;;;;;;;;;18.70;61.30;;;;;;5077117;28;19970;-67
2023/04/16 10:01:01;;;;;;;;;;;19.60;57.50;;;;;;5059067;28;19912;-67
2023/04/16 10:03:30;;;;;;;;;;;20.10;57.30;;;;;;5077054;28;19916;-67
2023/04/16 10:06:15;;;;;;;;;;;18.70;55.60;;;;;;5088077;28;19912;-67
2023/04/16 10:08:51;;;;;;;;;;;18.60;59.30;;;;;;5096964;28;20397;-67
2023/04/16 10:11:18;;;;;;;;;;;18.90;58.00;;;;;;5097098;28;19916;-67
2023/04/16 10:13:44;;;;;;;;;;;18.80;59.20;;;;;;5097069;28;19916;-67
2023/04/16 10:16:10;;;;;;;;;;;18.90;59.30;;;;;;5096756;28;20360;-67
2023/04/16 10:18:37;;;;;;;;;;;18.60;59.00;;;;;;5097069;28;19984;-67
2023/04/16 10:21:04;;;;;;;;;;;17.70;59.40;;;;;;5096833;28;19951;-67
2023/04/16 10:23:30;;;;;;;;;;;17.80;59.50;;;;;;5096773;28;20353;-67
2023/04/16 10:25:57;;;;;;;;;;;17.80;61.30;;;;;;5096783;28;20385;-67
2023/04/16 10:28:23;;;;;;;;;;;17.90;61.90;;;;;;5096718;28;19919;-67
2023/04/16 10:30:53;;;;;;;;;;;18.40;60.20;;;;;;5096476;28;19916;-67
2023/04/16 10:33:20;;;;;;;;;;;18.40;57.40;;;;;;5096784;28;20148;-67
2023/04/16 10:35:45;;;;;;;;;;;18.60;59.00;;;;;;5096682;28;20009;-67
2023/04/16 10:38:25;;;;;;;;;;;18.70;59.40;;;;;;5096109;28;19912;-67
2023/04/16 10:40:57;;;;;;;;;;;18.60;58.80;;;;;;5096596;28;19991;-67
2023/04/16 10:43:24;;;;;;;;;;;18.50;59.50;;;;;;5096336;28;19934;-67
2023/04/16 10:45:49;;;;;;;;;;;18.30;60.00;;;;;;5096586;28;19916;-67
2023/04/16 10:48:17;;;;;;;;;;;18.30;59.30;;;;;;5096394;28;19998;-67
2023/04/16 10:50:53;;;;;;;;;;;18.30;59.70;;;;;;5096035;28;19978;-67
2023/04/16 10:53:21;;;;;;;;;;;18.00;61.20;;;;;;5096268;28;19912;-67
2023/04/16 10:56:03;;;;;;;;;;;17.60;62.30;;;;;;5096030;28;19927;-67
2023/04/16 10:58:29;;;;;;;;;;;17.80;62.20;;;;;;5096088;28;20416;-67
2023/04/16 11:00:58;;;;;;;;;;;17.70;61.50;;;;;;5096139;28;20380;-67
2023/04/16 11:03:23;;;;;;;;;;;17.60;61.50;;;;;;5095989;28;20259;-67
2023/04/16 11:05:49;;;;;;;;;;;17.40;60.70;;;;;;5085533;28;19920;-67
2023/04/16 11:08:15;;;;;;;;;;;17.40;62.30;;;;;;5075515;28;20012;-67
2023/04/16 11:10:41;;;;;;;;;;;17.50;62.50;;;;;;5075678;28;19921;-67
2023/04/16 11:13:07;;;;;;;;;;;17.40;62.00;;;;;;5075844;28;19920;-67
2023/04/16 11:15:33;;;;;;;;;;;17.40;61.10;;;;;;5075616;28;19924;-67
2023/04/16 11:17:59;;;;;;;;;;;17.40;63.90;;;;;;5075518;28;19912;-67
2023/04/16 11:20:26;;;;;;;;;;;17.40;65.40;;;;;;5075481;28;19981;-67
2023/04/16 11:22:56;;;;;;;;;;;17.30;68.40;;;;;;5075428;28;19912;-67
2023/04/16 11:25:26;;;;;;;;;;;17.20;68.60;;;;;;5075587;28;19916;-67
2023/04/16 11:27:52;;;;;;;;;;;17.20;70.10;;;;;;5075413;28;19932;-67
2023/04/16 11:30:18;;;;;;;;;;;17.20;71.70;;;;;;5075274;28;20011;-67
2023/04/16 11:32:44;;;;;;;;;;;17.00;71.30;;;;;;5075351;28;19909;-67
2023/04/16 11:35:15;;;;;;;;;;;16.60;72.70;;;;;;5075203;28;19912;-67
2023/04/16 11:37:41;;;;;;;;;;;16.70;72.50;;;;;;5075592;28;20034;-67
2023/04/16 11:40:08;;;;;;;;;;;16.50;73.70;;;;;;5075110;28;19962;-67
2023/04/16 11:42:39;;;;;;;;;;;16.40;74.30;;;;;;5075126;28;20358;-67
2023/04/16 11:45:05;;;;;;;;;;;16.40;76.10;;;;;;5075116;28;20218;-67
2023/04/16 11:47:31;;;;;;;;;;;16.20;76.10;;;;;;5075077;28;20362;-67
2023/04/16 11:50:13;;;;;;;;;;;16.20;76.70;;;;;;5074412;28;19916;-67
2023/04/16 11:52:39;;;;;;;;;;;16.10;75.50;;;;;;5075065;28;20373;-67
2023/04/16 11:55:05;;;;;;;;;;;15.90;75.60;;;;;;5074879;28;19916;-67
2023/04/16 11:57:31;;;;;;;;;;;15.80;76.00;;;;;;5074869;28;19924;-67
2023/04/16 11:59:58;;;;;;;;;;;15.70;75.50;;;;;;5074959;28;20281;-67
2023/04/16 12:02:39;;;;;;;;;;;15.50;75.20;;;;;;5074868;28;19912;-67
2023/04/16 12:05:07;;;;;;;;;;;15.40;77.80;;;;;;5079303;28;19912;-67
2023/04/16 12:07:45;;;;;;;;;;;15.50;77.10;;;;;;5095076;28;19908;-67
2023/04/16 12:10:11;;;;;;;;;;;15.50;78.00;;;;;;5094907;28;19920;-67
2023/04/16 12:12:37;;;;;;;;;;;15.60;78.30;;;;;;5095096;28;19957;-67
2023/04/16 12:15:03;;;;;;;;;;;15.50;76.10;;;;;;5094977;28;20202;-67
2023/04/16 12:17:29;;;;;;;;;;;15.60;77.50;;;;;;5094851;28;19912;-67
2023/04/16 12:19:59;;;;;;;;;;;15.30;77.10;;;;;;5095033;28;19912;-67
2023/04/16 12:22:29;;;;;;;;;;;15.20;77.60;;;;;;5094898;28;19916;-67
2023/04/16 12:24:58;;;;;;;;;;;15.20;79.10;;;;;;5094844;28;19918;-67
2023/04/16 12:27:27;;;;;;;;;;;15.30;79.20;;;;;;5094873;28;19913;-67
2023/04/16 12:30:06;;;;;;;;;;;15.20;79.60;;;;;;5094815;28;19920;-67
2023/04/16 12:32:32;;;;;;;;;;;15.20;79.30;;;;;;5094869;28;19924;-67
2023/04/16 12:34:58;;;;;;;;;;;15.10;81.60;;;;;;5094838;28;19916;-67
2023/04/16 12:37:23;;;;;;;;;;;15.10;82.00;;;;;;5094731;28;19912;-67
2023/04/16 12:39:49;;;;;;;;;;;15.00;83.70;;;;;;5094619;28;20448;-66
2023/04/16 12:42:15;;;;;;;;;;;14.90;82.70;;;;;;5094730;28;20427;-67
2023/04/16 12:44:41;;;;;;;;;;;14.80;83.20;;;;;;5094728;28;19919;-67
2023/04/16 12:47:06;;;;;;;;;;;14.80;84.40;;;;;;5094636;28;19961;-67
2023/04/16 12:49:35;;;;;;;;;;;15.00;85.10;;;;;;5094522;28;19920;-67
2023/04/16 12:52:01;;;;;;;;;;;15.10;85.90;;;;;;5094817;28;19912;-67
2023/04/16 12:54:29;;;;;;;;;;;15.10;85.70;;;;;;5094536;28;19963;-66
2023/04/16 12:56:58;;;;;;;;;;;15.30;85.30;;;;;;5094775;28;19920;-67
2023/04/16 12:59:24;;;;;;;;;;;15.30;83.50;;;;;;5094586;28;20266;-67
2023/04/16 13:01:50;;;;;;;;;;;15.30;84.00;;;;;;5095752;28;19919;-67
2023/04/16 13:04:17;;;;;;;;;;;15.20;82.60;;;;;;5098389;28;19916;-67
2023/04/16 13:06:44;;;;;;;;;;;15.30;83.70;;;;;;5080342;28;19912;-67
2023/04/16 13:09:10;;;;;;;;;;;15.10;83.60;;;;;;5077870;28;19927;-67
2023/04/16 13:11:36;;;;;;;;;;;15.20;82.00;;;;;;5077928;28;20298;-67
2023/04/16 13:14:02;;;;;;;;;;;15.20;83.40;;;;;;5077934;28;19914;-67
2023/04/16 13:16:28;;;;;;;;;;;15.30;83.30;;;;;;5077862;28;19913;-66
2023/04/16 13:18:53;;;;;;;;;;;15.30;82.20;;;;;;5077972;28;19912;-67
2023/04/16 13:21:19;;;;;;;;;;;15.10;81.50;;;;;;5077799;28;19969;-67
2023/04/16 13:23:45;;;;;;;;;;;14.70;83.70;;;;;;5077685;28;20438;-67
2023/04/16 13:26:13;;;;;;;;;;;14.70;83.50;;;;;;5077956;28;19959;-67
2023/04/16 13:28:39;;;;;;;;;;;14.60;84.70;;;;;;5077710;28;19912;-67
2023/04/16 13:31:05;;;;;;;;;;;14.80;85.20;;;;;;5077654;28;19943;-67
2023/04/16 13:33:31;;;;;;;;;;;14.60;84.10;;;;;;5077758;28;19920;-67
2023/04/16 13:35:57;;;;;;;;;;;14.60;85.30;;;;;;5077662;28;19978;-67
2023/04/16 13:38:22;;;;;;;;;;;14.60;85.80;;;;;;5077546;28;19913;-67
2023/04/16 13:40:48;;;;;;;;;;;14.50;89.40;;;;;;5077643;28;19913;-67
2023/04/16 13:43:17;;;;;;;;;;;14.50;90.50;;;;;;5077496;28;19951;-67
2023/04/16 13:45:43;;;;;;;;;;;14.50;90.90;;;;;;5077470;28;19978;-67
2023/04/16 13:48:09;;;;;;;;;;;14.70;91.50;;;;;;5077434;28;19912;-67
2023/04/16 13:50:35;;;;;;;;;;;14.70;92.30;;;;;;5077452;28;19916;-67
2023/04/16 13:53:01;;;;;;;;;;;14.50;92.00;;;;;;5077286;28;19916;-67
2023/04/16 13:55:29;;;;;;;;;;;14.50;93.50;;;;;;5076998;28;19916;-67
2023/04/16 13:57:55;;;;;;;;;;;14.30;93.20;;;;;;5077143;28;19919;-67
2023/04/16 14:00:21;;;;;;;;;;;14.40;95.30;;;;;;5077192;28;19917;-67
2023/04/16 14:02:47;;;;;;;;;;;14.30;96.90;;;;;;5077006;28;19970;-67
2023/04/16 14:05:13;;;;;;;;;;;14.10;98.30;;;;;;5082185;28;20508;-67
2023/04/16 14:07:39;;;;;;;;;;;14.00;99.90;;;;;;5097286;28;19912;-67
2023/04/16 14:10:06;;;;;;;;;;;14.00;99.90;;;;;;5096817;28;20373;-67
2023/04/16 14:12:31;;;;;;;;;;;13.90;99.90;;;;;;5097044;28;19920;-67
2023/04/16 14:14:57;;;;;;;;;;;14.00;99.90;;;;;;5096388;28;19955;-67
2023/04/16 14:17:23;;;;;;;;;;;14.00;99.90;;;;;;5097073;28;19912;-67
2023/04/16 14:19:49;;;;;;;;;;;13.90;99.90;;;;;;5097015;28;19908;-67